Time,TemperatureF,DewpointF,PressureIn,WindDirection,WindDirectionDegrees,WindSpeedMPH,WindSpeedGustMPH,Humidity,HourlyPrecipIn,Conditions,Clouds,dailyrainin,SolarRadiationWatts/m^2,SoftwareType,DateUTC
2013-03-23 00:12:00,50.0,45.0,-100.00,ENE,72,0.0,0.0,82,0.00,,,0.00,0.000000,,2013-03-23 10:12:00,
2013-03-23 00:23:00,50.0,45.0,-100.00,ENE,72,0.0,0.0,82,0.00,,,0.00,0.000000,,2013-03-23 10:23:00,
2013-03-23 00:33:00,50.0,45.0,-100.00,ENE,72,0.0,0.0,82,0.00,,,0.00,0.000000,,2013-03-23 10:33:00,
2013-03-23 00:42:00,50.0,45.0,-100.00,ENE,72,0.0,0.0,82,0.00,,,0.00,0.000000,,2013-03-23 10:42:00,
2013-03-23 01:12:00,50.0,44.0,-100.00,WSW,251,0.0,0.0,80,0.00,,,0.00,0.000000,,2013-03-23 11:12:00,
2013-03-23 01:22:00,50.0,44.0,-100.00,WSW,251,0.0,0.0,80,0.00,,,0.00,0.000000,,2013-03-23 11:22:00,
2013-03-23 01:32:00,50.0,44.0,-100.00,WSW,251,0.0,0.0,80,0.00,,,0.00,0.000000,,2013-03-23 11:32:00,
2013-03-23 01:42:00,50.0,44.0,-100.00,WSW,251,0.0,0.0,80,0.00,,,0.00,0.000000,,2013-03-23 11:42:00,
2013-03-23 02:12:00,50.0,45.0,-100.00,SE,125,0.0,0.0,83,0.00,,,0.00,0.000000,,2013-03-23 12:12:00,
2013-03-23 02:22:00,50.0,45.0,-100.00,SE,125,0.0,0.0,83,0.00,,,0.00,0.000000,,2013-03-23 12:22:00,
2013-03-23 02:33:00,50.0,45.0,-100.00,SE,125,0.0,0.0,83,0.00,,,0.00,0.000000,,2013-03-23 12:33:00,
2013-03-23 02:42:00,50.0,45.0,-100.00,SE,125,0.0,0.0,83,0.00,,,0.00,0.000000,,2013-03-23 12:42:00,
2013-03-23 03:12:00,51.0,46.0,-100.00,SSE,167,0.0,0.0,82,0.00,,,0.00,0.000000,,2013-03-23 13:12:00,
2013-03-23 03:22:00,51.0,46.0,-100.00,SSE,167,0.0,0.0,82,0.00,,,0.00,0.000000,,2013-03-23 13:22:00,
2013-03-23 03:32:00,51.0,46.0,-100.00,SSE,167,0.0,0.0,82,0.00,,,0.00,0.000000,,2013-03-23 13:32:00,
2013-03-23 03:42:00,51.0,46.0,-100.00,SSE,167,0.0,0.0,82,0.00,,,0.00,0.000000,,2013-03-23 13:42:00,
2013-03-23 04:12:00,51.0,46.0,-100.00,SSE,160,0.0,0.0,84,0.00,,,0.00,0.000000,,2013-03-23 14:12:00,
2013-03-23 04:22:00,51.0,46.0,-100.00,SSE,160,0.0,0.0,84,0.00,,,0.00,0.000000,,2013-03-23 14:22:00,
2013-03-23 04:32:00,51.0,46.0,-100.00,SSE,160,0.0,0.0,84,0.00,,,0.00,0.000000,,2013-03-23 14:32:00,
2013-03-23 04:42:00,51.0,46.0,-100.00,SSE,160,0.0,0.0,84,0.00,,,0.00,0.000000,,2013-03-23 14:42:00,
2013-03-23 05:12:00,49.0,44.0,-100.00,ESE,123,0.0,0.0,83,0.00,,,0.00,0.000000,,2013-03-23 15:12:00,
2013-03-23 05:22:00,49.0,44.0,-100.00,ESE,123,0.0,0.0,83,0.00,,,0.00,0.000000,,2013-03-23 15:22:00,
2013-03-23 05:33:00,49.0,44.0,-100.00,ESE,123,0.0,0.0,83,0.00,,,0.00,0.000000,,2013-03-23 15:33:00,
2013-03-23 05:43:00,49.0,44.0,-100.00,ESE,123,0.0,0.0,83,0.00,,,0.00,0.000000,,2013-03-23 15:43:00,
2013-03-23 06:12:00,48.0,45.0,-100.00,SE,145,0.0,0.0,91,0.00,,,0.00,0.000000,,2013-03-23 16:12:00,
2013-03-23 06:22:00,48.0,45.0,-100.00,SE,145,0.0,0.0,91,0.00,,,0.00,0.000000,,2013-03-23 16:22:00,
2013-03-23 06:32:00,48.0,45.0,-100.00,SE,145,0.0,0.0,91,0.00,,,0.00,0.000000,,2013-03-23 16:32:00,
2013-03-23 06:42:00,48.0,45.0,-100.00,SE,145,0.0,0.0,91,0.00,,,0.00,0.000000,,2013-03-23 16:42:00,
2013-03-23 07:12:00,49.0,46.0,-100.00,SE,137,0.0,0.0,90,0.00,,,-99.99,4.000000,,2013-03-23 17:12:00,
2013-03-23 07:22:00,49.0,46.0,-100.00,SE,137,0.0,0.0,90,0.00,,,-99.99,4.000000,,2013-03-23 17:22:00,
2013-03-23 07:32:00,49.0,46.0,-100.00,SE,137,0.0,0.0,90,0.00,,,-99.99,4.000000,,2013-03-23 17:32:00,
2013-03-23 07:42:00,49.0,46.0,-100.00,SE,137,0.0,0.0,90,0.00,,,-99.99,4.000000,,2013-03-23 17:42:00,
2013-03-23 08:12:00,51.0,48.0,-100.00,SSE,156,0.0,0.0,88,0.00,,,0.00,76.000000,,2013-03-23 18:12:00,
2013-03-23 08:22:00,51.0,48.0,-100.00,SSE,156,0.0,0.0,88,0.00,,,0.00,76.000000,,2013-03-23 18:22:00,
2013-03-23 08:32:00,51.0,48.0,-100.00,SSE,156,0.0,0.0,88,0.00,,,0.00,76.000000,,2013-03-23 18:32:00,
2013-03-23 08:42:00,51.0,48.0,-100.00,SSE,156,0.0,0.0,88,0.00,,,0.00,76.000000,,2013-03-23 18:42:00,
2013-03-23 09:12:00,54.0,45.0,-100.00,NW,314,0.0,0.0,72,0.00,,,0.00,216.000000,,2013-03-23 19:12:00,
2013-03-23 09:22:00,54.0,45.0,-100.00,NW,314,0.0,0.0,72,0.00,,,0.00,216.000000,,2013-03-23 19:22:00,
2013-03-23 09:32:00,54.0,45.0,-100.00,NW,314,0.0,0.0,72,0.00,,,0.00,216.000000,,2013-03-23 19:32:00,
2013-03-23 09:42:00,54.0,45.0,-100.00,NW,314,0.0,0.0,72,0.00,,,0.00,216.000000,,2013-03-23 19:42:00,
2013-03-23 10:12:00,56.0,50.0,-100.00,NNW,330,4.0,8.0,80,0.00,,,0.00,426.000000,,2013-03-23 20:12:00,
2013-03-23 10:22:00,56.0,50.0,-100.00,NNW,330,4.0,8.0,80,0.00,,,0.00,426.000000,,2013-03-23 20:22:00,
2013-03-23 10:32:00,56.0,50.0,-100.00,NNW,330,4.0,8.0,80,0.00,,,0.00,426.000000,,2013-03-23 20:32:00,
2013-03-23 10:42:00,56.0,50.0,-100.00,NNW,330,4.0,8.0,80,0.00,,,0.00,426.000000,,2013-03-23 20:42:00,
2013-03-23 11:12:00,56.0,51.0,-100.00,NW,317,5.0,8.0,84,0.00,,,0.00,429.000000,,2013-03-23 21:12:00,
2013-03-23 11:22:00,56.0,51.0,-100.00,NW,317,5.0,8.0,84,0.00,,,0.00,429.000000,,2013-03-23 21:22:00,
2013-03-23 11:32:00,56.0,51.0,-100.00,NW,317,5.0,8.0,84,0.00,,,0.00,429.000000,,2013-03-23 21:32:00,
2013-03-23 11:43:00,56.0,51.0,-100.00,NW,317,5.0,8.0,84,0.00,,,0.00,429.000000,,2013-03-23 21:43:00,
2013-03-23 12:12:00,55.0,52.0,-100.00,NW,304,3.0,9.0,89,0.00,,,0.00,205.000000,,2013-03-23 22:12:00,
2013-03-23 12:23:00,55.0,52.0,-100.00,NW,304,3.0,9.0,89,0.00,,,0.00,205.000000,,2013-03-23 22:23:00,
2013-03-23 12:32:00,55.0,52.0,-100.00,NW,304,3.0,9.0,89,0.00,,,0.00,205.000000,,2013-03-23 22:32:00,
2013-03-23 12:42:00,55.0,52.0,-100.00,NW,304,3.0,9.0,89,0.00,,,0.00,205.000000,,2013-03-23 22:42:00,
2013-03-23 13:12:00,54.0,53.0,-100.00,NW,321,6.0,10.0,97,0.01,,,0.01,290.000000,,2013-03-23 23:12:00,
2013-03-23 13:22:00,54.0,53.0,-100.00,NW,321,6.0,10.0,97,0.01,,,0.01,290.000000,,2013-03-23 23:22:00,
2013-03-23 13:32:00,54.0,53.0,-100.00,NW,321,6.0,10.0,97,0.01,,,0.01,290.000000,,2013-03-23 23:32:00,
2013-03-23 13:42:00,54.0,53.0,-100.00,NW,321,6.0,10.0,97,0.01,,,0.01,290.000000,,2013-03-23 23:42:00,
2013-03-23 14:12:00,53.0,52.0,-100.00,NW,312,4.0,11.0,98,0.05,,,0.06,244.000000,,2013-03-24 00:12:00,
2013-03-23 14:22:00,53.0,52.0,-100.00,NW,312,4.0,11.0,98,0.05,,,0.06,244.000000,,2013-03-24 00:22:00,
2013-03-23 14:32:00,53.0,52.0,-100.00,NW,312,4.0,11.0,98,0.05,,,0.06,244.000000,,2013-03-24 00:32:00,
2013-03-23 14:42:00,53.0,52.0,-100.00,NW,312,4.0,11.0,98,0.05,,,0.06,244.000000,,2013-03-24 00:42:00,
2013-03-23 15:12:00,55.0,54.0,-100.00,NW,308,6.0,11.0,98,0.01,,,0.07,364.000000,,2013-03-24 01:12:00,
2013-03-23 15:22:00,55.0,54.0,-100.00,NW,308,6.0,11.0,98,0.01,,,0.07,364.000000,,2013-03-24 01:22:00,
2013-03-23 15:32:00,55.0,54.0,-100.00,NW,308,6.0,11.0,98,0.01,,,0.07,364.000000,,2013-03-24 01:32:00,
2013-03-23 15:42:00,55.0,54.0,-100.00,NW,308,6.0,11.0,98,0.01,,,0.07,364.000000,,2013-03-24 01:42:00,
2013-03-23 17:12:00,53.0,53.0,-100.00,NNW,338,8.0,14.0,99,-99.99,,,0.23,158.000000,,2013-03-24 03:12:00,
2013-03-23 17:22:00,53.0,53.0,-100.00,NNW,338,8.0,14.0,99,-99.99,,,0.23,158.000000,,2013-03-24 03:22:00,
2013-03-23 17:33:00,53.0,53.0,-100.00,NNW,338,8.0,14.0,99,-99.99,,,0.23,158.000000,,2013-03-24 03:33:00,
2013-03-23 17:42:00,53.0,53.0,-100.00,NNW,338,8.0,14.0,99,-99.99,,,0.23,158.000000,,2013-03-24 03:42:00,
2013-03-23 18:12:00,52.0,52.0,-100.00,WSW,248,1.0,12.0,99,0.07,,,0.30,137.000000,,2013-03-24 04:12:00,
2013-03-23 18:22:00,52.0,52.0,-100.00,WSW,248,1.0,12.0,99,0.07,,,0.30,137.000000,,2013-03-24 04:22:00,
2013-03-23 18:32:00,52.0,52.0,-100.00,WSW,248,1.0,12.0,99,0.07,,,0.30,137.000000,,2013-03-24 04:32:00,
2013-03-23 18:42:00,52.0,52.0,-100.00,WSW,248,1.0,12.0,99,0.07,,,0.30,137.000000,,2013-03-24 04:42:00,
2013-03-23 19:12:00,52.0,52.0,-100.00,SSW,212,4.0,8.0,100,0.02,,,0.32,11.000000,,2013-03-24 05:12:00,
2013-03-23 19:22:00,52.0,52.0,-100.00,SSW,212,4.0,8.0,100,0.02,,,0.32,11.000000,,2013-03-24 05:22:00,
2013-03-23 19:32:00,52.0,52.0,-100.00,SSW,212,4.0,8.0,100,0.02,,,0.32,11.000000,,2013-03-24 05:32:00,
2013-03-23 19:42:00,52.0,52.0,-100.00,SSW,212,4.0,8.0,100,0.02,,,0.32,11.000000,,2013-03-24 05:42:00,
2013-03-23 20:12:00,51.0,51.0,-100.00,ESE,114,2.0,7.0,100,0.00,,,0.32,0.000000,,2013-03-24 06:12:00,
2013-03-23 20:22:00,51.0,51.0,-100.00,ESE,114,2.0,7.0,100,0.00,,,0.32,0.000000,,2013-03-24 06:22:00,
2013-03-23 20:32:00,51.0,51.0,-100.00,ESE,114,2.0,7.0,100,0.00,,,0.32,0.000000,,2013-03-24 06:32:00,
2013-03-23 20:42:00,51.0,51.0,-100.00,ESE,114,2.0,7.0,100,0.00,,,0.32,0.000000,,2013-03-24 06:42:00,
2013-03-23 21:12:00,51.0,51.0,-100.00,SSE,160,2.0,5.0,100,0.01,,,0.33,0.000000,,2013-03-24 07:12:00,
2013-03-23 21:22:00,51.0,51.0,-100.00,SSE,160,2.0,5.0,100,0.01,,,0.33,0.000000,,2013-03-24 07:22:00,
2013-03-23 21:32:00,51.0,51.0,-100.00,SSE,160,2.0,5.0,100,0.01,,,0.33,0.000000,,2013-03-24 07:32:00,
2013-03-23 21:42:00,51.0,51.0,-100.00,SSE,160,2.0,5.0,100,0.01,,,0.33,0.000000,,2013-03-24 07:42:00,
2013-03-23 22:12:00,50.0,50.0,-100.00,NNE,21,1.0,5.0,100,0.00,,,0.33,0.000000,,2013-03-24 08:12:00,
2013-03-23 22:22:00,50.0,50.0,-100.00,NNE,21,1.0,5.0,100,0.00,,,0.33,0.000000,,2013-03-24 08:22:00,
2013-03-23 22:32:00,50.0,50.0,-100.00,NNE,21,1.0,5.0,100,0.00,,,0.33,0.000000,,2013-03-24 08:32:00,
2013-03-23 22:41:00,50.0,50.0,-100.00,NNE,21,1.0,5.0,100,0.00,,,0.33,0.000000,,2013-03-24 08:41:00,
2013-03-23 23:12:00,50.0,50.0,-100.00,ESE,121,4.0,5.0,100,0.00,,,0.33,0.000000,,2013-03-24 09:12:00,
2013-03-23 23:22:00,50.0,50.0,-100.00,ESE,121,4.0,5.0,100,0.00,,,0.33,0.000000,,2013-03-24 09:22:00,
2013-03-23 23:33:00,50.0,50.0,-100.00,ESE,121,4.0,5.0,100,0.00,,,0.33,0.000000,,2013-03-24 09:33:00,
2013-03-23 23:42:00,50.0,50.0,-100.00,ESE,121,4.0,5.0,100,0.00,,,0.33,0.000000,,2013-03-24 09:42:00,